Time;durP1;ratioP1;P1;durP2;ratioP2;P2;SDS_P1;SDS_P2;PMS_P1;PMS_P2;Temp;Humidity;BMP_temperature;BMP_pressure;BME280_temperature;BME280_humidity;BME280_pressure;Samples;Min_cycle;Max_cycle;Signal;HPM_P1;HPM_P2
2023/06/30 00:00:36;;;;;;;;;23.25;23.00;;;;;21.07;72.77;100658.16;5042996;28;46237;-74
2023/06/30 00:03:03;;;;;;;;;11.75;11.75;;;;;21.05;72.67;100657.47;5064419;28;45370;-75
2023/06/30 00:05:29;;;;;;;;;11.75;11.75;;;;;20.96;72.42;100655.53;5043843;28;45355;-74
2023/06/30 00:07:58;;;;;;;;;12.00;12.00;;;;;21.00;72.18;100659.66;5059708;28;45316;-72
2023/06/30 00:10:23;;;;;;;;;8.00;8.00;;;;;20.94;72.20;100649.47;5059148;28;45410;-70
2023/06/30 00:12:49;;;;;;;;;14.00;13.00;;;;;20.94;72.28;100662.84;5058757;28;45359;-72
2023/06/30 00:15:14;;;;;;;;;5.25;5.25;;;;;20.82;72.41;100654.88;5059952;28;45737;-72
2023/06/30 00:17:40;;;;;;;;;7.25;7.25;;;;;20.85;71.96;100654.63;5061321;28;45367;-73
2023/06/30 00:20:06;;;;;;;;;6.50;6.50;;;;;20.81;72.24;100647.81;5060443;28;45487;-72
2023/06/30 00:22:35;;;;;;;;;5.25;5.25;;;;;20.85;71.89;100651.13;5059675;28;45306;-74
2023/06/30 00:25:01;;;;;;;;;3.00;3.00;;;;;20.78;71.10;100645.41;5042190;28;45311;-75
2023/06/30 00:27:26;;;;;;;;;5.00;5.00;;;;;20.86;70.92;100652.81;5060509;28;45279;-73
2023/06/30 00:29:52;;;;;;;;;2.00;2.00;;;;;20.70;71.30;100637.16;5059732;28;45335;-76
2023/06/30 00:32:18;;;;;;;;;6.00;6.00;;;;;20.67;71.07;100648.91;5041460;28;45378;-73
2023/06/30 00:34:43;;;;;;;;;4.75;4.75;;;;;20.52;71.56;100644.84;5059732;28;45454;-74
2023/06/30 00:37:08;;;;;;;;;4.75;4.75;;;;;20.50;71.29;100647.66;5060150;28;45400;-76
2023/06/30 00:39:34;;;;;;;;;3.75;3.75;;;;;20.33;71.17;100638.31;5059661;28;45418;-74
2023/06/30 00:41:59;;;;;;;;;6.75;6.75;;;;;20.27;71.33;100645.03;5061635;28;45354;-76
2023/06/30 00:44:25;;;;;;;;;18.50;18.50;;;;;20.29;71.35;100651.09;5065223;28;45402;-72
2023/06/30 00:46:50;;;;;;;;;24.00;24.00;;;;;20.24;70.91;100647.94;5067656;28;45568;-74
2023/06/30 00:49:16;;;;;;;;;34.75;32.75;;;;;20.19;70.98;100659.94;5067830;28;45240;-72
2023/06/30 00:51:41;;;;;;;;;21.75;21.00;;;;;20.06;70.87;100634.22;5044657;28;45367;-74
2023/06/30 00:54:07;;;;;;;;;38.25;34.75;;;;;20.29;70.79;100661.78;5058983;28;45489;-78
2023/06/30 00:56:33;;;;;;;;;51.00;42.75;;;;;20.31;70.30;100663.47;5059019;28;45275;-77
2023/06/30 00:58:58;;;;;;;;;62.75;51.00;;;;;20.31;70.31;100666.97;5058600;28;47055;-77
2023/06/30 01:01:51;;;;;;;;;68.33;57.67;;;;;20.33;70.00;100665.03;5060306;28;45218;-75
2023/06/30 01:04:50;;;;;;;;;77.33;67.33;;;;;20.37;69.83;100671.00;5060301;28;45334;-76
2023/06/30 01:07:26;;;;;;;;;54.25;44.50;;;;;20.34;69.45;100669.41;5059351;28;45416;-77
2023/06/30 01:09:58;;;;;;;;;72.00;58.33;;;;;20.37;69.72;100665.66;5058970;28;45305;-75
2023/06/30 01:12:25;;;;;;;;;48.50;40.00;;;;;20.47;69.61;100681.75;5061010;28;45247;-76
2023/06/30 01:14:53;;;;;;;;;44.75;38.75;;;;;20.38;69.44;100670.84;5059032;28;45431;-73
2023/06/30 01:17:20;;;;;;;;;64.75;52.00;;;;;20.42;68.90;100671.47;5059117;28;45306;-75
2023/06/30 01:19:49;;;;;;;;;28.00;27.25;;;;;20.40;68.57;100663.56;5058248;28;46111;-78
2023/06/30 01:22:30;;;;;;;;;14.25;14.25;;;;;20.28;68.84;100670.75;5040621;28;45449;-72
2023/06/30 01:25:02;;;;;;;;;11.50;11.50;;;;;20.06;68.78;100644.91;5058540;28;45285;-71
2023/06/30 01:27:28;;;;;;;;;14.75;14.00;;;;;20.22;68.60;100692.63;5059610;28;45432;-73
2023/06/30 01:29:54;;;;;;;;;25.75;25.25;;;;;20.20;68.47;100688.34;5059788;28;45508;-73
2023/06/30 01:32:21;;;;;;;;;55.50;46.50;;;;;20.13;68.76;100679.97;5062930;28;45273;-75
2023/06/30 01:34:47;;;;;;;;;72.00;58.33;;;;;20.08;68.27;100687.50;5064315;28;45327;-71
2023/06/30 01:37:13;;;;;;;;;68.00;53.25;;;;;20.06;68.93;100684.94;5061457;28;45184;-72
2023/06/30 01:39:40;;;;;;;;;43.00;36.50;;;;;19.97;68.70;100667.00;5059217;28;46081;-71
2023/06/30 01:42:06;;;;;;;;;50.50;41.25;;;;;20.05;68.20;100687.72;5058451;28;45539;-73
2023/06/30 01:44:33;;;;;;;;;61.50;49.75;;;;;20.05;68.19;100693.94;5058456;28;45288;-74
2023/06/30 01:46:59;;;;;;;;;45.00;38.00;;;;;20.08;68.17;100693.69;5041455;28;45652;-75
2023/06/30 01:49:26;;;;;;;;;21.50;21.50;;;;;20.06;68.41;100690.28;5058623;28;45461;-72
2023/06/30 01:51:52;;;;;;;;;14.25;14.25;;;;;20.04;68.33;100691.38;5058268;28;45427;-71
2023/06/30 01:54:17;;;;;;;;;8.00;8.00;;;;;20.01;68.64;100684.47;5058395;28;45780;-75
2023/06/30 01:56:49;;;;;;;;;3.00;3.00;;;;;19.99;69.16;100689.09;5060523;28;45635;-76
2023/06/30 01:59:16;;;;;;;;;6.00;6.00;;;;;19.90;69.25;100679.13;5059607;28;45513;-74
2023/06/30 02:01:42;;;;;;;;;4.75;4.75;;;;;19.80;68.86;100684.28;5058952;28;45235;-72
2023/06/30 02:04:09;;;;;;;;;4.50;4.50;;;;;19.74;69.00;100672.28;5059084;28;45192;-75
2023/06/30 02:06:35;;;;;;;;;3.75;3.75;;;;;19.74;69.14;100669.63;5040508;28;45409;-74
2023/06/30 02:09:00;;;;;;;;;3.75;3.75;;;;;19.73;68.99;100675.06;5058109;28;46085;-73
2023/06/30 02:11:26;;;;;;;;;4.25;4.25;;;;;19.74;68.62;100688.31;5058338;28;45480;-73
2023/06/30 02:13:51;;;;;;;;;2.75;2.75;;;;;19.65;68.15;100670.34;5058893;28;45323;-74
2023/06/30 02:16:17;;;;;;;;;3.00;3.00;;;;;19.71;68.15;100683.19;5059498;28;45595;-74
2023/06/30 02:18:42;;;;;;;;;2.00;2.00;;;;;19.70;68.44;100684.16;5060195;28;46257;-74
2023/06/30 02:21:08;;;;;;;;;4.50;4.50;;;;;19.70;68.31;100685.00;5042497;28;45369;-74
2023/06/30 02:23:33;;;;;;;;;6.00;6.00;;;;;19.63;68.72;100689.13;5058556;28;45398;-73
2023/06/30 02:25:59;;;;;;;;;4.00;4.00;;;;;19.59;68.95;100698.31;5058483;28;45426;-72
2023/06/30 02:28:24;;;;;;;;;2.50;2.50;;;;;19.50;68.74;100702.53;5040191;28;46958;-72
2023/06/30 02:30:49;;;;;;;;;3.50;3.50;;;;;19.42;69.14;100699.59;5058121;28;45319;-73
2023/06/30 02:33:15;;;;;;;;;2.25;2.25;;;;;19.44;69.42;100703.00;5060549;28;45730;-70
2023/06/30 02:35:41;;;;;;;;;2.00;2.00;;;;;19.49;69.28;100697.31;5058589;28;45229;-72
2023/06/30 02:38:07;;;;;;;;;5.00;5.00;;;;;19.56;69.28;100703.91;5059773;28;46164;-73
2023/06/30 02:40:32;;;;;;;;;4.00;4.00;;;;;19.41;69.22;100700.56;5060910;28;45447;-71
2023/06/30 02:42:59;;;;;;;;;8.25;8.00;;;;;19.32;69.40;100693.25;5056889;28;45245;-71
2023/06/30 02:45:24;;;;;;;;;25.25;25.25;;;;;19.34;69.38;100702.88;5057459;28;45304;-72
2023/06/30 02:47:49;;;;;;;;;62.75;51.75;;;;;19.30;69.75;100688.06;5056954;28;46146;-72
2023/06/30 02:50:15;;;;;;;;;19.75;19.75;;;;;19.22;69.93;100675.28;5057392;28;45419;-71
2023/06/30 02:52:40;;;;;;;;;36.75;33.50;;;;;19.32;69.52;100701.25;5057461;28;45388;-72
2023/06/30 02:55:06;;;;;;;;;22.50;22.50;;;;;19.25;69.67;100696.38;5058314;28;45332;-70
2023/06/30 02:57:32;;;;;;;;;6.00;6.00;;;;;19.20;69.56;100690.56;5057873;28;46509;-72
2023/06/30 02:59:57;;;;;;;;;35.00;32.50;;;;;19.20;68.90;100693.22;5057903;28;45446;-72
2023/06/30 03:02:22;;;;;;;;;6.50;5.50;;;;;19.21;69.32;100696.75;5059843;28;45304;-71
2023/06/30 03:04:48;;;;;;;;;12.75;12.50;;;;;19.16;69.12;100691.75;5058774;28;45432;-73
2023/06/30 03:07:16;;;;;;;;;11.00;11.00;;;;;19.09;69.22;100672.72;5059337;28;46271;-73
2023/06/30 03:09:42;;;;;;;;;7.25;7.25;;;;;19.11;69.56;100684.13;5039006;28;45221;-74
2023/06/30 03:12:07;;;;;;;;;8.00;6.50;;;;;19.12;69.45;100693.81;5039859;28;45339;-73
2023/06/30 03:14:33;;;;;;;;;4.00;4.00;;;;;19.06;69.21;100691.56;5056903;28;45660;-71
2023/06/30 03:16:58;;;;;;;;;4.00;4.00;;;;;19.02;68.92;100695.44;5057249;28;46186;-72
2023/06/30 03:19:24;;;;;;;;;5.00;5.00;;;;;19.00;69.53;100685.88;5058459;28;45277;-72
2023/06/30 03:21:49;;;;;;;;;4.75;4.75;;;;;19.02;68.96;100684.78;5058329;28;45373;-74
2023/06/30 03:24:14;;;;;;;;;6.00;6.00;;;;;19.04;69.16;100692.66;5059762;28;45313;-74
2023/06/30 03:26:40;;;;;;;;;5.00;4.00;;;;;18.98;68.77;100683.28;5059804;28;45733;-73
2023/06/30 03:29:05;;;;;;;;;4.75;4.75;;;;;19.08;68.73;100686.97;5062118;28;45471;-74
2023/06/30 03:31:31;;;;;;;;;1.50;1.50;;;;;19.08;68.53;100686.16;5063437;28;45490;-73
2023/06/30 03:33:58;;;;;;;;;2.25;2.25;;;;;19.00;67.97;100676.03;5061109;28;45427;-75
2023/06/30 03:36:24;;;;;;;;;2.00;2.00;;;;;18.87;68.03;100672.56;5058956;28;45521;-71
2023/06/30 03:38:49;;;;;;;;;2.00;2.00;;;;;18.78;67.76;100666.09;5058471;28;45389;-73
2023/06/30 03:41:14;;;;;;;;;3.00;3.00;;;;;18.77;68.33;100659.91;5058449;28;45422;-71
2023/06/30 03:43:40;;;;;;;;;2.75;2.75;;;;;18.76;68.28;100671.53;5059654;28;45418;-77
2023/06/30 03:46:05;;;;;;;;;3.00;3.00;;;;;18.36;68.35;100626.50;5059659;28;45962;-78
2023/06/30 03:48:31;;;;;;;;;2.00;2.00;;;;;18.67;68.42;100674.88;5042791;28;46240;-73
2023/06/30 03:50:56;;;;;;;;;3.00;3.00;;;;;18.44;68.33;100647.22;5061439;28;45271;-73
2023/06/30 03:53:22;;;;;;;;;3.00;3.00;;;;;18.61;68.40;100686.84;5059412;28;45291;-73
2023/06/30 03:55:47;;;;;;;;;2.75;2.75;;;;;18.60;68.29;100684.28;5056954;28;45364;-74
2023/06/30 03:58:13;;;;;;;;;2.75;2.75;;;;;18.59;67.48;100680.78;5056165;28;45347;-72
2023/06/30 04:00:38;;;;;;;;;3.00;3.00;;;;;18.62;67.83;100683.22;5038315;28;45650;-73
2023/06/30 04:03:03;;;;;;;;;1.25;1.25;;;;;18.60;67.28;100685.16;5056509;28;45343;-75
2023/06/30 04:05:28;;;;;;;;;2.00;2.00;;;;;18.60;66.66;100684.28;5056858;28;45242;-74
2023/06/30 04:07:54;;;;;;;;;3.00;3.00;;;;;18.60;66.83;100674.50;5056810;28;45209;-75
2023/06/30 04:10:19;;;;;;;;;2.00;2.00;;;;;18.61;66.55;100680.66;5060627;28;45269;-77
2023/06/30 04:12:45;;;;;;;;;3.00;3.00;;;;;18.57;66.35;100673.84;5057163;28;45209;-74
2023/06/30 04:15:10;;;;;;;;;3.00;3.00;;;;;18.60;66.48;100685.16;5037751;28;46529;-70
2023/06/30 04:17:38;;;;;;;;;3.00;3.00;;;;;18.60;66.42;100681.63;5055449;28;45362;-71
2023/06/30 04:20:09;;;;;;;;;2.00;2.00;;;;;18.59;66.51;100680.78;5055946;28;45329;-75
2023/06/30 04:22:36;;;;;;;;;2.00;2.00;;;;;18.64;66.72;100678.63;5056910;28;45312;-73
2023/06/30 04:25:01;;;;;;;;;3.00;3.00;;;;;18.66;66.20;100689.16;5056693;28;45428;-75
2023/06/30 04:27:26;;;;;;;;;3.00;3.00;;;;;18.65;66.52;100685.66;5056606;28;45176;-75
2023/06/30 04:29:52;;;;;;;;;3.75;3.75;;;;;18.71;65.95;100691.50;5038923;28;50886;-77
2023/06/30 04:32:17;;;;;;;;;4.25;4.25;;;;;18.70;66.14;100682.63;5059198;28;45209;-71
2023/06/30 04:34:44;;;;;;;;;4.25;4.25;;;;;18.71;66.46;100689.66;5058771;28;45960;-72
2023/06/30 04:37:10;;;;;;;;;4.00;4.00;;;;;18.73;65.97;100687.75;5057721;28;45453;-73
2023/06/30 04:39:35;;;;;;;;;4.00;4.00;;;;;18.76;65.64;100682.19;5057202;28;45328;-71
2023/06/30 04:42:01;;;;;;;;;3.25;3.25;;;;;18.74;65.61;100683.28;5061569;28;45220;-72
2023/06/30 04:44:26;;;;;;;;;3.00;3.00;;;;;18.80;64.52;100686.34;5057086;28;45259;-72
2023/06/30 04:46:52;;;;;;;;;3.00;3.00;;;;;18.70;64.88;100679.97;5058918;28;45232;-73
2023/06/30 04:49:17;;;;;;;;;3.50;3.50;;;;;18.82;64.41;100684.41;5059232;28;45308;-76
2023/06/30 04:51:43;;;;;;;;;2.00;2.00;;;;;18.83;64.12;100686.09;5041657;28;45564;-74
2023/06/30 04:54:08;;;;;;;;;3.25;3.25;;;;;18.70;63.67;100664.00;5061552;28;45699;-72
2023/06/30 04:56:34;;;;;;;;;3.50;3.50;;;;;18.74;64.09;100669.97;5060867;28;51324;-70
2023/06/30 04:58:59;;;;;;;;;3.50;3.50;;;;;18.78;63.91;100669.59;5060484;28;45265;-73
2023/06/30 05:01:24;;;;;;;;;5.25;5.25;;;;;18.96;64.31;100663.88;5060168;28;45379;-76
2023/06/30 05:03:50;;;;;;;;;4.00;4.00;;;;;19.21;63.71;100672.75;5059203;28;46049;-73
2023/06/30 05:06:15;;;;;;;;;5.00;5.00;;;;;19.37;62.88;100665.28;5058792;28;45387;-72
2023/06/30 05:08:40;;;;;;;;;6.00;6.00;;;;;19.59;62.56;100665.44;5059004;28;45335;-72
2023/06/30 05:11:06;;;;;;;;;7.00;7.00;;;;;19.77;62.33;100671.19;5058723;28;45423;-73
2023/06/30 05:13:31;;;;;;;;;4.25;4.25;;;;;19.97;61.68;100675.84;5059243;28;45331;-73
2023/06/30 05:15:57;;;;;;;;;6.00;6.00;;;;;20.04;60.48;100670.88;5060763;28;45342;-73
2023/06/30 05:18:22;;;;;;;;;5.00;5.00;;;;;20.18;59.97;100683.16;5060394;28;45355;-73
2023/06/30 05:20:47;;;;;;;;;6.25;6.25;;;;;20.24;59.99;100682.66;5058971;28;45449;-73
2023/06/30 05:23:13;;;;;;;;;7.25;7.25;;;;;20.36;59.48;100686.16;5042239;28;46653;-76
2023/06/30 05:25:38;;;;;;;;;7.25;6.75;;;;;20.47;58.84;100687.09;5059186;28;45340;-74
2023/06/30 05:28:03;;;;;;;;;5.50;5.50;;;;;20.48;58.65;100687.00;5059797;28;45428;-73
2023/06/30 05:30:29;;;;;;;;;8.50;8.50;;;;;20.43;58.53;100667.81;5059462;28;45363;-73
2023/06/30 05:32:54;;;;;;;;;7.50;7.50;;;;;20.44;58.47;100669.53;5058701;28;45456;-73
2023/06/30 05:35:20;;;;;;;;;9.25;9.25;;;;;20.48;58.95;100687.00;5058095;28;45477;-74
2023/06/30 05:37:46;;;;;;;;;7.75;7.75;;;;;20.44;58.63;100683.72;5059484;28;45361;-73
2023/06/30 05:40:12;;;;;;;;;11.50;11.50;;;;;20.52;58.77;100685.78;5060567;28;45232;-73
2023/06/30 05:42:37;;;;;;;;;8.50;8.50;;;;;20.57;58.83;100686.25;5059748;28;46361;-71
2023/06/30 05:45:03;;;;;;;;;10.25;10.25;;;;;20.62;58.53;100687.69;5059370;28;45359;-74
2023/06/30 05:47:28;;;;;;;;;9.50;9.50;;;;;20.60;58.51;100689.66;5058624;28;45319;-75
2023/06/30 05:49:53;;;;;;;;;11.00;11.00;;;;;20.57;57.82;100688.94;5058641;28;45219;-73
2023/06/30 05:52:21;;;;;;;;;9.25;9.25;;;;;20.60;58.22;100697.66;5058207;28;45257;-73
2023/06/30 05:54:47;;;;;;;;;8.50;8.50;;;;;20.57;58.02;100682.72;5057683;28;45332;-78
2023/06/30 05:57:12;;;;;;;;;9.25;9.25;;;;;20.64;57.46;100699.13;5039794;28;45719;-76
2023/06/30 05:59:37;;;;;;;;;7.25;7.25;;;;;20.56;57.49;100681.88;5061080;28;45376;-75
2023/06/30 06:02:03;;;;;;;;;9.75;9.75;;;;;20.61;57.44;100691.34;5062310;28;45428;-73
2023/06/30 06:04:28;;;;;;;;;9.25;9.25;;;;;20.64;57.33;100696.44;5058865;28;45404;-71
2023/06/30 06:06:54;;;;;;;;;5.00;5.00;;;;;20.69;57.55;100703.13;5058715;28;45398;-74
2023/06/30 06:09:19;;;;;;;;;6.00;6.00;;;;;20.66;57.58;100699.84;5060112;28;45505;-72
2023/06/30 06:11:44;;;;;;;;;8.25;8.25;;;;;20.52;57.50;100692.94;5059330;28;46495;-73
2023/06/30 06:14:10;;;;;;;;;7.00;7.00;;;;;20.51;57.95;100705.47;5057893;28;45437;-74
2023/06/30 06:16:35;;;;;;;;;4.25;4.25;;;;;20.47;57.87;100704.00;5057591;28;45766;-75
2023/06/30 06:19:01;;;;;;;;;6.75;6.75;;;;;20.41;57.92;100701.81;5039120;28;45161;-74
2023/06/30 06:21:27;;;;;;;;;7.25;7.25;;;;;20.48;58.48;100712.84;5056529;28;45559;-76
2023/06/30 06:23:53;;;;;;;;;5.75;5.75;;;;;20.44;57.73;100704.25;5059495;28;45221;-79
2023/06/30 06:26:19;;;;;;;;;7.75;7.75;;;;;20.37;58.84;100697.69;5059564;28;45272;-76
2023/06/30 06:28:44;;;;;;;;;7.00;7.00;;;;;20.42;58.32;100696.34;5057238;28;45268;-74
2023/06/30 06:31:09;;;;;;;;;7.75;7.75;;;;;20.56;57.47;100723.78;5056661;28;45360;-74
2023/06/30 06:33:35;;;;;;;;;8.00;6.50;;;;;20.56;57.75;100727.31;5056788;28;45350;-74
2023/06/30 06:36:01;;;;;;;;;8.00;8.00;;;;;20.54;58.06;100731.06;5056797;28;45388;-74
2023/06/30 06:38:26;;;;;;;;;7.00;7.00;;;;;20.58;57.25;100730.72;5038822;28;45450;-72
2023/06/30 06:40:51;;;;;;;;;8.50;8.50;;;;;20.65;57.24;100724.88;5039580;28;47254;-73
2023/06/30 06:43:17;;;;;;;;;6.00;6.00;;;;;20.67;57.00;100718.41;5057550;28;45328;-72
2023/06/30 06:45:42;;;;;;;;;6.00;6.00;;;;;20.81;56.97;100733.38;5057699;28;45348;-72
2023/06/30 06:48:24;;;;;;;;;7.75;7.75;;;;;20.81;56.56;100736.03;5040970;28;45499;-72
2023/06/30 06:50:55;;;;;;;;;6.75;6.75;;;;;20.85;56.45;100731.31;5040598;28;47090;-73
2023/06/30 06:53:32;;;;;;;;;6.00;6.00;;;;;20.95;56.76;100724.22;5057046;28;45322;-70
2023/06/30 06:55:58;;;;;;;;;7.00;7.00;;;;;21.05;56.29;100728.81;5057980;28;45435;-72
2023/06/30 06:58:26;;;;;;;;;8.00;8.00;;;;;21.16;56.15;100731.47;5057394;28;45352;-70
2023/06/30 07:00:52;;;;;;;;;9.00;9.00;;;;;21.27;55.56;100727.91;5056157;28;45676;-72
2023/06/30 07:03:19;;;;;;;;;6.25;6.25;;;;;21.37;55.15;100736.84;5056492;28;45387;-70
2023/06/30 07:05:45;;;;;;;;;8.75;8.75;;;;;21.51;54.50;100732.16;5038343;28;45529;-73
2023/06/30 07:08:12;;;;;;;;;4.50;4.50;;;;;21.57;54.50;100726.28;5055440;28;45631;-76
2023/06/30 07:10:38;;;;;;;;;8.50;8.50;;;;;21.58;54.64;100730.66;5058462;28;45479;-73
2023/06/30 07:13:04;;;;;;;;;5.50;5.50;;;;;21.56;53.90;100720.06;5056225;28;45229;-73
2023/06/30 07:15:30;;;;;;;;;5.00;5.00;;;;;21.67;52.27;100731.72;5055992;28;45451;-75
2023/06/30 07:17:58;;;;;;;;;7.50;7.50;;;;;21.81;52.35;100728.75;5055714;28;45438;-75
2023/06/30 07:20:24;;;;;;;;;4.75;4.75;;;;;21.91;52.11;100736.81;5055199;28;46286;-73
2023/06/30 07:22:51;;;;;;;;;5.00;5.00;;;;;21.91;52.11;100739.50;5055208;28;45343;-76
2023/06/30 07:25:16;;;;;;;;;8.00;8.00;;;;;21.88;52.23;100729.91;5037151;28;45310;-73
2023/06/30 07:27:49;;;;;;;;;6.50;6.50;;;;;22.10;52.06;100745.94;5055655;28;45236;-74
2023/06/30 07:30:15;;;;;;;;;6.00;6.00;;;;;22.17;51.87;100737.25;5055296;28;46337;-71
2023/06/30 07:32:41;;;;;;;;;5.25;5.25;;;;;22.33;51.07;100746.63;5058811;28;45534;-75
2023/06/30 07:35:07;;;;;;;;;5.00;5.00;;;;;22.48;49.50;100741.78;5055846;28;45269;-78
2023/06/30 07:37:32;;;;;;;;;6.00;6.00;;;;;22.59;50.11;100739.00;5037908;28;45330;-78
2023/06/30 07:39:58;;;;;;;;;6.00;6.00;;;;;22.71;49.56;100741.56;5058537;28;45543;-77
2023/06/30 07:42:23;;;;;;;;;5.75;5.75;;;;;22.92;49.36;100744.16;5056324;28;45402;-77
2023/06/30 07:44:49;;;;;;;;;5.75;5.75;;;;;22.90;47.65;100732.72;5056079;28;45450;-78
2023/06/30 07:47:16;;;;;;;;;6.00;6.00;;;;;22.95;47.72;100740.34;5055350;28;45241;-74
2023/06/30 07:49:41;;;;;;;;;8.25;8.25;;;;;23.07;47.50;100733.84;5055719;28;46158;-77
2023/06/30 07:52:07;;;;;;;;;5.25;5.25;;;;;23.26;47.16;100749.16;5055343;28;45410;-77
2023/06/30 07:54:32;;;;;;;;;5.25;5.25;;;;;23.18;46.94;100733.72;5057853;28;45267;-74
2023/06/30 07:56:57;;;;;;;;;6.50;6.50;;;;;23.23;45.70;100748.56;5057436;28;45529;-74
2023/06/30 07:59:23;;;;;;;;;7.00;7.00;;;;;23.34;45.58;100746.63;5037482;28;48751;-73
2023/06/30 08:01:48;;;;;;;;;6.75;6.75;;;;;23.38;44.84;100749.88;5055113;28;45436;-73
2023/06/30 08:04:14;;;;;;;;;7.00;7.00;;;;;23.48;44.59;100752.56;5056368;28;45339;-75
2023/06/30 08:06:39;;;;;;;;;6.50;5.50;;;;;23.63;44.06;100750.28;5055281;28;45533;-71
2023/06/30 08:09:04;;;;;;;;;5.25;5.25;;;;;23.80;43.93;100746.00;5054674;28;47146;-72
2023/06/30 08:11:30;;;;;;;;;6.00;6.00;;;;;23.84;43.65;100755.47;5036590;28;46197;-73
2023/06/30 08:13:56;;;;;;;;;4.00;4.00;;;;;23.95;43.02;100748.25;5054965;28;45292;-73
2023/06/30 08:16:22;;;;;;;;;6.25;6.25;;;;;24.11;43.09;100753.91;5037514;28;45547;-75
2023/06/30 08:18:48;;;;;;;;;5.00;5.00;;;;;24.26;42.54;100748.03;5057082;28;46489;-74
2023/06/30 08:21:13;;;;;;;;;3.00;3.00;;;;;24.28;40.70;100744.19;5060978;28;45254;-75
2023/06/30 08:23:39;;;;;;;;;3.75;3.75;;;;;24.35;38.98;100749.84;5060379;28;45246;-73
2023/06/30 08:26:04;;;;;;;;;3.00;3.00;;;;;24.38;38.58;100746.00;5041339;28;45527;-73
2023/06/30 08:28:30;;;;;;;;;5.00;5.00;;;;;24.49;39.03;100751.22;5060319;28;45994;-71
2023/06/30 08:30:55;;;;;;;;;4.00;4.00;;;;;24.67;39.10;100742.34;5058505;28;45402;-70
2023/06/30 08:33:28;;;;;;;;;5.00;5.00;;;;;24.75;39.47;100739.78;5058614;28;45397;-72
2023/06/30 08:35:54;;;;;;;;;5.00;5.00;;;;;24.99;39.22;100741.03;5058630;28;45289;-73
2023/06/30 08:38:20;;;;;;;;;3.00;3.00;;;;;25.19;38.20;100745.25;5039785;28;47091;-73
2023/06/30 08:40:45;;;;;;;;;5.75;5.75;;;;;25.40;38.35;100738.72;5042087;28;49640;-71
2023/06/30 08:43:11;;;;;;;;;5.00;5.00;;;;;25.73;38.11;100735.47;5060477;28;47733;-72
2023/06/30 08:45:43;;;;;;;;;3.25;3.25;;;;;26.03;36.26;100744.09;5046739;28;45377;-73
2023/06/30 08:48:08;;;;;;;;;4.25;4.25;;;;;26.12;35.99;100740.44;5067331;28;46397;-73
2023/06/30 08:50:35;;;;;;;;;2.00;2.00;;;;;26.33;36.03;100733.84;5065865;28;45240;-75
2023/06/30 08:53:01;;;;;;;;;1.00;1.00;;;;;26.48;34.23;100734.91;5062214;28;45321;-74
2023/06/30 08:55:27;;;;;;;;;3.00;2.00;;;;;26.31;34.46;100738.56;5058936;28;45404;-75
2023/06/30 08:57:56;;;;;;;;;2.00;2.00;;;;;26.17;35.14;100734.59;5060035;28;46098;-71
2023/06/30 09:00:23;;;;;;;;;3.00;3.00;;;;;26.30;34.40;100740.38;5060593;28;45300;-73
2023/06/30 09:02:49;;;;;;;;;2.25;2.25;;;;;26.39;34.28;100728.63;5061969;28;45161;-71
2023/06/30 09:05:14;;;;;;;;;2.75;2.75;;;;;26.47;33.72;100726.97;5059314;28;45365;-72
2023/06/30 09:07:53;;;;;;;;;3.25;3.25;;;;;26.63;34.70;100727.06;5057723;28;46215;-75
2023/06/30 09:10:22;;;;;;;;;4.00;4.00;;;;;26.79;34.17;100722.72;5058877;28;45320;-72
2023/06/30 09:12:50;;;;;;;;;5.00;5.00;;;;;26.93;33.55;100713.13;5059323;28;45354;-69
2023/06/30 09:15:18;;;;;;;;;4.25;4.25;;;;;27.11;34.01;100719.25;5039936;28;45562;-73
2023/06/30 09:17:44;;;;;;;;;3.00;3.00;;;;;27.22;33.59;100712.66;5039614;28;46154;-69
2023/06/30 09:20:14;;;;;;;;;2.50;2.50;;;;;27.20;32.81;100711.16;5057661;28;45716;-77
2023/06/30 09:22:40;;;;;;;;;2.00;2.00;;;;;26.88;32.99;100700.16;5058049;28;45319;-74
2023/06/30 09:25:27;;;;;;;;;4.00;4.00;;;;;26.68;33.12;100702.25;5040917;28;45645;-73
2023/06/30 09:27:53;;;;;;;;;3.75;3.75;;;;;26.70;33.00;100702.94;5040221;28;47247;-73
2023/06/30 09:30:38;;;;;;;;;5.50;5.50;;;;;26.72;33.40;100671.25;5040101;28;45327;-75
2023/06/30 09:33:05;;;;;;;;;17.50;17.50;;;;;27.20;33.53;100703.88;5040277;28;45435;-71
2023/06/30 09:35:38;;;;;;;;;12.25;12.25;;;;;27.49;33.48;100707.97;5057964;28;45546;-74
2023/06/30 09:38:17;;;;;;;;;6.25;6.25;;;;;27.76;33.13;100700.50;5057574;28;45402;-74
2023/06/30 09:40:44;;;;;;;;;4.00;4.00;;;;;27.72;33.12;100701.88;5039245;28;45459;-73
2023/06/30 09:43:21;;;;;;;;;5.00;5.00;;;;;27.65;32.17;100698.16;5058169;28;45396;-73
2023/06/30 09:45:53;;;;;;;;;3.75;3.75;;;;;27.48;32.59;100710.81;5058535;28;45348;-74
2023/06/30 09:48:18;;;;;;;;;1.75;1.75;;;;;27.39;31.92;100704.56;5057952;28;45217;-76
2023/06/30 09:50:44;;;;;;;;;2.75;2.75;;;;;27.25;32.11;100706.09;5057723;28;45327;-74
2023/06/30 09:53:10;;;;;;;;;5.00;4.00;;;;;26.97;31.99;100714.47;5057945;28;45417;-75
2023/06/30 09:55:46;;;;;;;;;5.50;5.50;;;;;26.94;32.07;100709.41;5040132;28;45519;-75
2023/06/30 09:58:12;;;;;;;;;5.50;5.50;;;;;27.12;32.16;100702.03;5059242;28;46335;-78
2023/06/30 10:00:40;;;;;;;;;3.75;3.75;;;;;27.31;31.76;100701.88;5057699;28;45268;-79
2023/06/30 10:03:08;;;;;;;;;3.25;3.25;;;;;27.50;31.33;100696.13;5060789;28;45386;-75
2023/06/30 10:05:33;;;;;;;;;5.75;5.75;;;;;27.63;31.68;100692.09;5062971;28;45264;-77
2023/06/30 10:08:02;;;;;;;;;4.50;4.50;;;;;27.47;31.78;100699.16;5057817;28;45421;-75
2023/06/30 10:10:28;;;;;;;;;3.50;3.50;;;;;27.16;31.80;100670.13;5039505;28;45372;-77
2023/06/30 10:12:56;;;;;;;;;5.25;5.25;;;;;27.27;32.58;100690.56;5058169;28;45321;-74
2023/06/30 10:15:23;;;;;;;;;6.50;6.50;;;;;27.25;32.65;100690.72;5040362;28;45614;-76
2023/06/30 10:17:48;;;;;;;;;5.25;5.25;;;;;27.15;32.66;100678.41;5057521;28;46214;-74
2023/06/30 10:20:14;;;;;;;;;6.25;6.25;;;;;27.23;32.94;100681.94;5039089;28;45312;-74
2023/06/30 10:22:42;;;;;;;;;6.25;6.25;;;;;27.19;33.04;100693.28;5040563;28;45346;-73
2023/06/30 10:25:10;;;;;;;;;9.25;9.25;;;;;27.38;33.13;100683.97;5059334;28;45541;-72
2023/06/30 10:27:36;;;;;;;;;19.50;19.50;;;;;27.85;33.28;100677.00;5058908;28;45323;-74
2023/06/30 10:30:02;;;;;;;;;9.75;9.75;;;;;28.25;32.28;100679.75;5059296;28;45234;-73
2023/06/30 10:32:27;;;;;;;;;9.00;9.00;;;;;28.68;31.83;100684.78;5058657;28;45321;-71
2023/06/30 10:34:54;;;;;;;;;13.00;13.00;;;;;29.00;32.09;100682.88;5058940;28;45593;-70
2023/06/30 10:37:20;;;;;;;;;8.50;8.00;;;;;28.97;32.17;100678.69;5057653;28;46208;-76
2023/06/30 10:39:46;;;;;;;;;8.00;8.00;;;;;28.79;31.68;100681.69;5056538;28;45284;-72
2023/06/30 10:42:12;;;;;;;;;8.25;8.25;;;;;28.77;32.14;100681.03;5057664;28;45452;-73
2023/06/30 10:44:45;;;;;;;;;9.50;9.50;;;;;28.85;31.73;100677.44;5056835;28;45386;-70
2023/06/30 10:47:26;;;;;;;;;8.25;8.25;;;;;29.04;31.49;100677.97;5055951;28;45417;-73
2023/06/30 10:49:53;;;;;;;;;6.50;5.75;;;;;28.97;30.90;100638.09;5056804;28;45309;-72
2023/06/30 10:52:29;;;;;;;;;5.50;5.50;;;;;29.35;30.26;100686.00;5039906;28;45383;-74
2023/06/30 10:55:04;;;;;;;;;4.75;4.75;;;;;29.08;30.04;100644.09;5057679;28;45255;-75
2023/06/30 10:57:35;;;;;;;;;3.25;3.25;;;;;29.14;29.55;100673.16;5058961;28;46238;-73
2023/06/30 11:00:14;;;;;;;;;6.25;6.25;;;;;28.90;29.68;100633.56;5056520;28;45490;-70
2023/06/30 11:02:56;;;;;;;;;4.00;4.00;;;;;29.27;30.03;100684.19;5056679;28;45211;-71
2023/06/30 11:05:29;;;;;;;;;4.50;4.50;;;;;29.33;30.49;100689.91;5057467;28;45446;-75
2023/06/30 11:08:01;;;;;;;;;5.00;5.00;;;;;29.27;30.53;100680.66;5039287;28;48210;-72
2023/06/30 11:10:34;;;;;;;;;6.25;6.25;;;;;29.07;30.34;100655.94;5038879;28;45465;-73
2023/06/30 11:13:01;;;;;;;;;6.75;6.75;;;;;29.43;30.53;100672.41;5056457;28;45209;-75
2023/06/30 11:15:44;;;;;;;;;5.75;5.75;;;;;29.58;30.64;100660.75;5021102;28;45573;-72
2023/06/30 11:18:19;;;;;;;;;6.00;6.00;;;;;29.38;30.39;100688.34;5055629;28;46274;-73
2023/06/30 11:21:04;;;;;;;;;7.00;7.00;;;;;29.22;30.78;100670.38;5038334;28;45459;-71